sensor_id;sensor_type;location;lat;lon;timestamp;P1;durP1;ratioP1;P2;durP2;ratioP2
53151;SDS011;39234;53.158;6.322;2023-03-14T00:01:10;25.60;;;4.65;;
53151;SDS011;39234;53.158;6.322;2023-03-14T00:03:38;29.27;;;4.95;;
53151;SDS011;39234;53.158;6.322;2023-03-14T00:06:04;28.13;;;5.22;;
53151;SDS011;39234;53.158;6.322;2023-03-14T00:08:31;30.23;;;5.65;;
53151;SDS011;39234;53.158;6.322;2023-03-14T00:10:57;24.10;;;4.82;;
53151;SDS011;39234;53.158;6.322;2023-03-14T00:13:23;28.42;;;5.85;;
53151;SDS011;39234;53.158;6.322;2023-03-14T00:15:49;24.45;;;4.72;;
53151;SDS011;39234;53.158;6.322;2023-03-14T00:18:15;18.67;;;4.90;;
53151;SDS011;39234;53.158;6.322;2023-03-14T00:20:41;27.75;;;4.93;;
53151;SDS011;39234;53.158;6.322;2023-03-14T00:23:06;29.52;;;6.35;;
53151;SDS011;39234;53.158;6.322;2023-03-14T00:25:32;24.58;;;4.10;;
53151;SDS011;39234;53.158;6.322;2023-03-14T00:27:58;25.58;;;4.47;;
53151;SDS011;39234;53.158;6.322;2023-03-14T00:30:23;28.25;;;4.70;;
53151;SDS011;39234;53.158;6.322;2023-03-14T00:32:49;28.33;;;4.70;;
53151;SDS011;39234;53.158;6.322;2023-03-14T00:35:15;22.50;;;5.10;;
53151;SDS011;39234;53.158;6.322;2023-03-14T00:37:41;25.13;;;5.30;;
53151;SDS011;39234;53.158;6.322;2023-03-14T00:40:07;27.77;;;4.57;;
53151;SDS011;39234;53.158;6.322;2023-03-14T00:42:33;21.02;;;3.95;;
53151;SDS011;39234;53.158;6.322;2023-03-14T00:44:59;19.77;;;4.47;;
53151;SDS011;39234;53.158;6.322;2023-03-14T00:47:25;26.50;;;4.30;;
53151;SDS011;39234;53.158;6.322;2023-03-14T00:49:51;23.30;;;4.60;;
53151;SDS011;39234;53.158;6.322;2023-03-14T00:52:16;31.52;;;5.78;;
53151;SDS011;39234;53.158;6.322;2023-03-14T00:54:42;20.70;;;4.47;;
53151;SDS011;39234;53.158;6.322;2023-03-14T00:57:08;23.17;;;4.65;;
53151;SDS011;39234;53.158;6.322;2023-03-14T00:59:34;24.65;;;4.57;;
53151;SDS011;39234;53.158;6.322;2023-03-14T01:01:59;21.17;;;4.63;;
53151;SDS011;39234;53.158;6.322;2023-03-14T01:04:25;23.13;;;3.85;;
53151;SDS011;39234;53.158;6.322;2023-03-14T01:06:51;17.42;;;3.58;;
53151;SDS011;39234;53.158;6.322;2023-03-14T01:09:17;30.08;;;6.03;;
53151;SDS011;39234;53.158;6.322;2023-03-14T01:11:43;27.42;;;4.40;;
53151;SDS011;39234;53.158;6.322;2023-03-14T01:14:11;24.40;;;4.28;;
53151;SDS011;39234;53.158;6.322;2023-03-14T01:16:37;19.05;;;3.78;;
53151;SDS011;39234;53.158;6.322;2023-03-14T01:19:03;35.63;;;5.75;;
53151;SDS011;39234;53.158;6.322;2023-03-14T01:21:30;18.45;;;3.42;;
53151;SDS011;39234;53.158;6.322;2023-03-14T01:23:58;20.73;;;3.75;;
53151;SDS011;39234;53.158;6.322;2023-03-14T01:26:25;26.83;;;3.67;;
53151;SDS011;39234;53.158;6.322;2023-03-14T01:28:53;18.63;;;3.20;;
53151;SDS011;39234;53.158;6.322;2023-03-14T01:31:20;16.10;;;3.22;;
53151;SDS011;39234;53.158;6.322;2023-03-14T01:33:46;19.02;;;4.28;;
53151;SDS011;39234;53.158;6.322;2023-03-14T01:36:12;24.23;;;4.22;;
53151;SDS011;39234;53.158;6.322;2023-03-14T01:38:39;21.75;;;3.95;;
53151;SDS011;39234;53.158;6.322;2023-03-14T01:41:06;18.58;;;3.47;;
53151;SDS011;39234;53.158;6.322;2023-03-14T01:43:36;18.08;;;2.95;;
53151;SDS011;39234;53.158;6.322;2023-03-14T01:54:12;16.77;;;3.10;;
53151;SDS011;39234;53.158;6.322;2023-03-14T01:56:46;19.63;;;3.35;;
53151;SDS011;39234;53.158;6.322;2023-03-14T01:59:16;16.00;;;2.95;;
53151;SDS011;39234;53.158;6.322;2023-03-14T02:01:43;20.35;;;3.50;;
53151;SDS011;39234;53.158;6.322;2023-03-14T02:04:12;19.13;;;3.22;;
53151;SDS011;39234;53.158;6.322;2023-03-14T02:06:53;16.55;;;3.10;;
53151;SDS011;39234;53.158;6.322;2023-03-14T02:09:29;15.10;;;2.88;;
53151;SDS011;39234;53.158;6.322;2023-03-14T02:11:55;15.35;;;2.85;;
53151;SDS011;39234;53.158;6.322;2023-03-14T02:14:25;20.70;;;3.90;;
53151;SDS011;39234;53.158;6.322;2023-03-14T02:16:55;15.55;;;2.80;;
53151;SDS011;39234;53.158;6.322;2023-03-14T02:19:25;13.40;;;2.90;;
53151;SDS011;39234;53.158;6.322;2023-03-14T02:22:13;14.13;;;2.22;;
53151;SDS011;39234;53.158;6.322;2023-03-14T02:27:27;16.95;;;3.13;;
53151;SDS011;39234;53.158;6.322;2023-03-14T02:30:00;15.23;;;2.72;;
53151;SDS011;39234;53.158;6.322;2023-03-14T02:32:31;11.52;;;2.45;;
53151;SDS011;39234;53.158;6.322;2023-03-14T02:35:00;18.50;;;3.90;;
53151;SDS011;39234;53.158;6.322;2023-03-14T02:37:35;15.68;;;2.63;;
53151;SDS011;39234;53.158;6.322;2023-03-14T02:40:22;14.55;;;2.40;;
53151;SDS011;39234;53.158;6.322;2023-03-14T02:42:48;15.10;;;3.35;;
53151;SDS011;39234;53.158;6.322;2023-03-14T02:47:44;15.98;;;2.58;;
53151;SDS011;39234;53.158;6.322;2023-03-14T02:50:19;21.35;;;2.88;;
53151;SDS011;39234;53.158;6.322;2023-03-14T02:52:47;14.80;;;2.92;;
53151;SDS011;39234;53.158;6.322;2023-03-14T02:55:13;15.38;;;2.55;;
53151;SDS011;39234;53.158;6.322;2023-03-14T02:57:39;15.00;;;2.95;;
53151;SDS011;39234;53.158;6.322;2023-03-14T03:00:05;12.10;;;2.40;;
53151;SDS011;39234;53.158;6.322;2023-03-14T03:02:32;15.32;;;2.70;;
53151;SDS011;39234;53.158;6.322;2023-03-14T03:04:57;16.98;;;3.20;;
53151;SDS011;39234;53.158;6.322;2023-03-14T03:07:23;13.23;;;2.67;;
53151;SDS011;39234;53.158;6.322;2023-03-14T03:09:49;21.98;;;3.95;;
53151;SDS011;39234;53.158;6.322;2023-03-14T03:12:15;23.25;;;4.35;;
53151;SDS011;39234;53.158;6.322;2023-03-14T03:14:40;19.20;;;3.58;;
53151;SDS011;39234;53.158;6.322;2023-03-14T03:17:06;15.63;;;2.78;;
53151;SDS011;39234;53.158;6.322;2023-03-14T03:19:32;16.98;;;3.10;;
53151;SDS011;39234;53.158;6.322;2023-03-14T03:21:59;20.77;;;3.72;;
53151;SDS011;39234;53.158;6.322;2023-03-14T03:24:25;17.90;;;3.63;;
53151;SDS011;39234;53.158;6.322;2023-03-14T03:26:51;18.92;;;3.90;;
53151;SDS011;39234;53.158;6.322;2023-03-14T03:29:17;16.60;;;3.53;;
53151;SDS011;39234;53.158;6.322;2023-03-14T03:31:43;13.55;;;3.65;;
53151;SDS011;39234;53.158;6.322;2023-03-14T03:34:10;22.63;;;4.20;;
53151;SDS011;39234;53.158;6.322;2023-03-14T03:36:37;18.30;;;4.05;;
53151;SDS011;39234;53.158;6.322;2023-03-14T03:39:03;31.67;;;5.10;;
53151;SDS011;39234;53.158;6.322;2023-03-14T03:41:29;24.73;;;4.28;;
53151;SDS011;39234;53.158;6.322;2023-03-14T03:43:55;17.05;;;3.75;;
53151;SDS011;39234;53.158;6.322;2023-03-14T03:46:22;23.40;;;4.63;;
53151;SDS011;39234;53.158;6.322;2023-03-14T03:48:47;24.58;;;4.85;;
53151;SDS011;39234;53.158;6.322;2023-03-14T03:51:14;27.35;;;4.95;;
53151;SDS011;39234;53.158;6.322;2023-03-14T03:53:41;24.90;;;4.13;;
53151;SDS011;39234;53.158;6.322;2023-03-14T03:56:07;23.20;;;4.07;;
53151;SDS011;39234;53.158;6.322;2023-03-14T03:58:34;22.08;;;4.43;;
53151;SDS011;39234;53.158;6.322;2023-03-14T04:01:00;23.10;;;3.75;;
53151;SDS011;39234;53.158;6.322;2023-03-14T04:03:26;25.95;;;4.22;;
53151;SDS011;39234;53.158;6.322;2023-03-14T04:06:01;26.60;;;4.22;;
53151;SDS011;39234;53.158;6.322;2023-03-14T04:08:28;26.80;;;5.85;;
53151;SDS011;39234;53.158;6.322;2023-03-14T04:10:55;28.73;;;5.25;;
53151;SDS011;39234;53.158;6.322;2023-03-14T04:13:22;30.55;;;5.18;;
53151;SDS011;39234;53.158;6.322;2023-03-14T04:15:49;26.25;;;4.57;;
53151;SDS011;39234;53.158;6.322;2023-03-14T04:18:15;28.83;;;5.20;;
53151;SDS011;39234;53.158;6.322;2023-03-14T04:20:41;29.50;;;4.15;;
53151;SDS011;39234;53.158;6.322;2023-03-14T04:23:07;30.65;;;4.88;;
53151;SDS011;39234;53.158;6.322;2023-03-14T04:25:33;22.85;;;4.95;;
53151;SDS011;39234;53.158;6.322;2023-03-14T04:27:58;23.42;;;4.47;;
53151;SDS011;39234;53.158;6.322;2023-03-14T04:30:24;26.27;;;5.32;;
53151;SDS011;39234;53.158;6.322;2023-03-14T04:32:50;24.63;;;5.90;;
53151;SDS011;39234;53.158;6.322;2023-03-14T04:35:15;31.25;;;6.20;;
53151;SDS011;39234;53.158;6.322;2023-03-14T04:37:41;21.83;;;5.38;;
53151;SDS011;39234;53.158;6.322;2023-03-14T04:40:08;22.52;;;6.13;;
53151;SDS011;39234;53.158;6.322;2023-03-14T04:42:35;29.13;;;5.72;;
53151;SDS011;39234;53.158;6.322;2023-03-14T04:45:01;27.27;;;6.25;;
53151;SDS011;39234;53.158;6.322;2023-03-14T04:47:27;32.80;;;6.55;;
53151;SDS011;39234;53.158;6.322;2023-03-14T04:49:53;30.45;;;7.32;;
53151;SDS011;39234;53.158;6.322;2023-03-14T04:52:19;25.83;;;7.05;;
53151;SDS011;39234;53.158;6.322;2023-03-14T04:54:44;26.88;;;6.88;;
53151;SDS011;39234;53.158;6.322;2023-03-14T04:57:10;24.20;;;7.60;;
53151;SDS011;39234;53.158;6.322;2023-03-14T04:59:36;27.52;;;8.95;;
53151;SDS011;39234;53.158;6.322;2023-03-14T05:02:02;20.83;;;8.35;;
53151;SDS011;39234;53.158;6.322;2023-03-14T05:04:28;23.25;;;8.32;;
53151;SDS011;39234;53.158;6.322;2023-03-14T05:06:54;16.58;;;7.97;;
53151;SDS011;39234;53.158;6.322;2023-03-14T05:09:20;20.30;;;8.45;;
53151;SDS011;39234;53.158;6.322;2023-03-14T05:11:45;24.13;;;9.10;;
53151;SDS011;39234;53.158;6.322;2023-03-14T05:14:11;22.02;;;8.13;;
53151;SDS011;39234;53.158;6.322;2023-03-14T05:16:37;19.15;;;7.55;;
53151;SDS011;39234;53.158;6.322;2023-03-14T05:19:03;16.15;;;7.05;;
53151;SDS011;39234;53.158;6.322;2023-03-14T05:21:28;14.23;;;6.28;;
53151;SDS011;39234;53.158;6.322;2023-03-14T05:23:54;16.77;;;7.00;;
53151;SDS011;39234;53.158;6.322;2023-03-14T05:26:20;14.27;;;6.90;;
53151;SDS011;39234;53.158;6.322;2023-03-14T05:28:46;14.07;;;5.70;;
53151;SDS011;39234;53.158;6.322;2023-03-14T05:31:11;15.05;;;6.72;;
53151;SDS011;39234;53.158;6.322;2023-03-14T05:33:37;11.93;;;5.75;;
53151;SDS011;39234;53.158;6.322;2023-03-14T05:36:03;14.23;;;6.68;;
53151;SDS011;39234;53.158;6.322;2023-03-14T05:38:29;14.10;;;5.65;;
53151;SDS011;39234;53.158;6.322;2023-03-14T05:40:55;14.98;;;5.55;;
53151;SDS011;39234;53.158;6.322;2023-03-14T05:43:20;13.13;;;5.30;;
53151;SDS011;39234;53.158;6.322;2023-03-14T05:45:46;12.57;;;4.45;;
53151;SDS011;39234;53.158;6.322;2023-03-14T05:48:12;13.77;;;5.03;;
53151;SDS011;39234;53.158;6.322;2023-03-14T05:50:38;11.95;;;4.43;;
53151;SDS011;39234;53.158;6.322;2023-03-14T05:53:04;11.68;;;5.18;;
53151;SDS011;39234;53.158;6.322;2023-03-14T05:55:30;11.90;;;4.38;;
53151;SDS011;39234;53.158;6.322;2023-03-14T05:57:56;17.17;;;4.22;;
53151;SDS011;39234;53.158;6.322;2023-03-14T06:00:22;10.07;;;4.47;;
53151;SDS011;39234;53.158;6.322;2023-03-14T06:02:48;10.90;;;4.25;;
53151;SDS011;39234;53.158;6.322;2023-03-14T06:05:13;11.73;;;4.75;;
53151;SDS011;39234;53.158;6.322;2023-03-14T06:07:39;14.10;;;5.60;;
53151;SDS011;39234;53.158;6.322;2023-03-14T06:10:05;11.23;;;4.63;;
53151;SDS011;39234;53.158;6.322;2023-03-14T06:12:31;11.10;;;4.78;;
53151;SDS011;39234;53.158;6.322;2023-03-14T06:14:57;11.15;;;4.15;;
53151;SDS011;39234;53.158;6.322;2023-03-14T06:17:22;12.50;;;4.28;;
53151;SDS011;39234;53.158;6.322;2023-03-14T06:19:48;10.77;;;3.75;;
53151;SDS011;39234;53.158;6.322;2023-03-14T06:22:14;8.90;;;2.92;;
53151;SDS011;39234;53.158;6.322;2023-03-14T06:24:40;10.02;;;1.77;;
53151;SDS011;39234;53.158;6.322;2023-03-14T06:27:05;12.13;;;1.90;;
53151;SDS011;39234;53.158;6.322;2023-03-14T06:29:31;9.90;;;1.83;;
53151;SDS011;39234;53.158;6.322;2023-03-14T06:31:57;14.68;;;2.33;;
53151;SDS011;39234;53.158;6.322;2023-03-14T06:34:23;13.93;;;4.15;;
53151;SDS011;39234;53.158;6.322;2023-03-14T06:36:48;12.25;;;2.13;;
53151;SDS011;39234;53.158;6.322;2023-03-14T06:39:14;15.93;;;2.80;;
53151;SDS011;39234;53.158;6.322;2023-03-14T06:41:40;18.10;;;2.85;;
53151;SDS011;39234;53.158;6.322;2023-03-14T06:44:06;15.63;;;4.00;;
53151;SDS011;39234;53.158;6.322;2023-03-14T06:46:31;10.98;;;2.33;;
53151;SDS011;39234;53.158;6.322;2023-03-14T06:48:57;14.30;;;3.47;;
53151;SDS011;39234;53.158;6.322;2023-03-14T06:51:23;18.52;;;2.10;;
53151;SDS011;39234;53.158;6.322;2023-03-14T06:53:48;13.82;;;2.75;;
53151;SDS011;39234;53.158;6.322;2023-03-14T06:56:14;12.18;;;2.00;;
53151;SDS011;39234;53.158;6.322;2023-03-14T06:58:40;12.77;;;1.67;;
53151;SDS011;39234;53.158;6.322;2023-03-14T07:01:06;14.63;;;2.05;;
53151;SDS011;39234;53.158;6.322;2023-03-14T07:03:50;12.20;;;2.60;;
53151;SDS011;39234;53.158;6.322;2023-03-14T07:06:16;13.93;;;1.88;;
53151;SDS011;39234;53.158;6.322;2023-03-14T07:08:41;12.25;;;1.77;;
53151;SDS011;39234;53.158;6.322;2023-03-14T07:11:07;8.32;;;1.58;;
53151;SDS011;39234;53.158;6.322;2023-03-14T07:13:35;13.18;;;1.65;;
53151;SDS011;39234;53.158;6.322;2023-03-14T07:16:00;6.88;;;1.20;;
53151;SDS011;39234;53.158;6.322;2023-03-14T07:18:26;9.27;;;1.20;;
53151;SDS011;39234;53.158;6.322;2023-03-14T07:20:52;7.50;;;1.30;;
53151;SDS011;39234;53.158;6.322;2023-03-14T07:23:18;5.50;;;1.20;;
53151;SDS011;39234;53.158;6.322;2023-03-14T07:25:44;7.78;;;2.72;;
53151;SDS011;39234;53.158;6.322;2023-03-14T07:28:10;9.15;;;1.40;;
53151;SDS011;39234;53.158;6.322;2023-03-14T07:30:36;6.30;;;1.10;;
53151;SDS011;39234;53.158;6.322;2023-03-14T07:33:02;7.13;;;1.13;;
53151;SDS011;39234;53.158;6.322;2023-03-14T07:35:28;2.80;;;0.60;;
53151;SDS011;39234;53.158;6.322;2023-03-14T07:37:54;4.68;;;0.88;;
53151;SDS011;39234;53.158;6.322;2023-03-14T07:40:20;5.97;;;0.90;;
53151;SDS011;39234;53.158;6.322;2023-03-14T07:42:46;6.63;;;1.30;;
53151;SDS011;39234;53.158;6.322;2023-03-14T07:45:13;10.38;;;1.33;;
53151;SDS011;39234;53.158;6.322;2023-03-14T07:47:39;7.60;;;1.13;;
53151;SDS011;39234;53.158;6.322;2023-03-14T07:50:05;9.15;;;1.33;;
53151;SDS011;39234;53.158;6.322;2023-03-14T07:52:31;7.68;;;2.00;;
53151;SDS011;39234;53.158;6.322;2023-03-14T07:54:57;7.25;;;1.30;;
53151;SDS011;39234;53.158;6.322;2023-03-14T07:57:23;10.35;;;1.50;;
53151;SDS011;39234;53.158;6.322;2023-03-14T07:59:49;7.00;;;1.20;;
53151;SDS011;39234;53.158;6.322;2023-03-14T08:02:15;8.95;;;1.05;;
53151;SDS011;39234;53.158;6.322;2023-03-14T08:04:42;4.03;;;1.00;;
53151;SDS011;39234;53.158;6.322;2023-03-14T08:07:09;10.32;;;1.15;;
53151;SDS011;39234;53.158;6.322;2023-03-14T08:09:34;6.18;;;1.10;;
53151;SDS011;39234;53.158;6.322;2023-03-14T08:12:00;7.90;;;1.98;;
53151;SDS011;39234;53.158;6.322;2023-03-14T08:14:26;6.28;;;1.30;;
53151;SDS011;39234;53.158;6.322;2023-03-14T08:16:54;6.82;;;1.05;;
53151;SDS011;39234;53.158;6.322;2023-03-14T08:19:20;11.40;;;2.08;;
53151;SDS011;39234;53.158;6.322;2023-03-14T08:21:46;8.15;;;1.20;;
53151;SDS011;39234;53.158;6.322;2023-03-14T08:24:12;17.25;;;2.45;;
53151;SDS011;39234;53.158;6.322;2023-03-14T08:26:38;9.23;;;1.20;;
53151;SDS011;39234;53.158;6.322;2023-03-14T08:29:04;8.10;;;1.23;;
53151;SDS011;39234;53.158;6.322;2023-03-14T08:31:30;15.30;;;1.85;;
53151;SDS011;39234;53.158;6.322;2023-03-14T08:33:58;12.40;;;3.17;;
53151;SDS011;39234;53.158;6.322;2023-03-14T08:36:24;12.13;;;1.33;;
53151;SDS011;39234;53.158;6.322;2023-03-14T08:38:50;10.35;;;2.10;;
53151;SDS011;39234;53.158;6.322;2023-03-14T08:41:16;5.60;;;1.10;;
53151;SDS011;39234;53.158;6.322;2023-03-14T08:43:42;10.18;;;1.30;;
53151;SDS011;39234;53.158;6.322;2023-03-14T08:46:08;7.45;;;1.58;;
53151;SDS011;39234;53.158;6.322;2023-03-14T08:48:34;10.27;;;1.42;;
53151;SDS011;39234;53.158;6.322;2023-03-14T08:51:10;10.30;;;1.45;;
53151;SDS011;39234;53.158;6.322;2023-03-14T08:53:40;13.07;;;1.65;;
53151;SDS011;39234;53.158;6.322;2023-03-14T08:56:06;12.10;;;1.83;;
53151;SDS011;39234;53.158;6.322;2023-03-14T08:58:35;18.42;;;2.22;;
53151;SDS011;39234;53.158;6.322;2023-03-14T09:01:04;15.07;;;2.20;;
53151;SDS011;39234;53.158;6.322;2023-03-14T09:03:31;15.80;;;2.60;;
53151;SDS011;39234;53.158;6.322;2023-03-14T09:06:00;15.10;;;2.92;;
53151;SDS011;39234;53.158;6.322;2023-03-14T09:08:28;16.90;;;2.38;;
53151;SDS011;39234;53.158;6.322;2023-03-14T09:10:54;17.98;;;2.55;;
53151;SDS011;39234;53.158;6.322;2023-03-14T09:13:20;16.15;;;2.72;;
53151;SDS011;39234;53.158;6.322;2023-03-14T09:15:50;19.15;;;3.03;;
53151;SDS011;39234;53.158;6.322;2023-03-14T09:18:19;23.38;;;3.47;;
53151;SDS011;39234;53.158;6.322;2023-03-14T09:20:45;19.63;;;3.25;;
53151;SDS011;39234;53.158;6.322;2023-03-14T09:23:11;20.90;;;3.33;;
53151;SDS011;39234;53.158;6.322;2023-03-14T09:25:37;25.70;;;3.50;;
53151;SDS011;39234;53.158;6.322;2023-03-14T09:28:03;18.15;;;2.67;;
53151;SDS011;39234;53.158;6.322;2023-03-14T09:30:29;17.15;;;2.88;;
53151;SDS011;39234;53.158;6.322;2023-03-14T09:32:55;20.88;;;3.08;;
53151;SDS011;39234;53.158;6.322;2023-03-14T09:35:22;20.35;;;2.63;;
53151;SDS011;39234;53.158;6.322;2023-03-14T09:37:48;22.27;;;2.80;;
53151;SDS011;39234;53.158;6.322;2023-03-14T09:40:17;17.65;;;3.10;;
53151;SDS011;39234;53.158;6.322;2023-03-14T09:42:45;24.92;;;2.88;;
53151;SDS011;39234;53.158;6.322;2023-03-14T09:45:28;15.75;;;2.78;;
53151;SDS011;39234;53.158;6.322;2023-03-14T09:47:59;26.48;;;3.60;;
53151;SDS011;39234;53.158;6.322;2023-03-14T09:50:36;23.17;;;3.65;;
53151;SDS011;39234;53.158;6.322;2023-03-14T09:53:07;22.33;;;3.88;;
53151;SDS011;39234;53.158;6.322;2023-03-14T09:55:37;16.90;;;2.95;;
53151;SDS011;39234;53.158;6.322;2023-03-14T09:58:08;24.05;;;3.85;;
53151;SDS011;39234;53.158;6.322;2023-03-14T10:00:36;14.48;;;2.40;;
53151;SDS011;39234;53.158;6.322;2023-03-14T10:05:36;19.70;;;3.60;;
53151;SDS011;39234;53.158;6.322;2023-03-14T10:08:02;21.50;;;3.22;;
53151;SDS011;39234;53.158;6.322;2023-03-14T10:10:29;26.83;;;3.55;;
53151;SDS011;39234;53.158;6.322;2023-03-14T10:12:59;20.55;;;2.78;;
53151;SDS011;39234;53.158;6.322;2023-03-14T10:15:54;21.50;;;3.58;;
53151;SDS011;39234;53.158;6.322;2023-03-14T10:18:23;20.27;;;3.60;;
53151;SDS011;39234;53.158;6.322;2023-03-14T10:20:51;17.90;;;3.15;;
53151;SDS011;39234;53.158;6.322;2023-03-14T10:23:46;15.98;;;2.40;;
53151;SDS011;39234;53.158;6.322;2023-03-14T10:26:23;15.65;;;3.40;;
53151;SDS011;39234;53.158;6.322;2023-03-14T10:28:52;16.60;;;2.20;;
53151;SDS011;39234;53.158;6.322;2023-03-14T10:31:25;16.50;;;2.60;;
53151;SDS011;39234;53.158;6.322;2023-03-14T10:33:59;18.35;;;3.17;;
53151;SDS011;39234;53.158;6.322;2023-03-14T10:36:27;17.63;;;2.40;;
53151;SDS011;39234;53.158;6.322;2023-03-14T10:39:39;15.98;;;2.70;;
53151;SDS011;39234;53.158;6.322;2023-03-14T10:42:06;17.85;;;2.75;;
53151;SDS011;39234;53.158;6.322;2023-03-14T10:45:00;16.90;;;3.17;;
53151;SDS011;39234;53.158;6.322;2023-03-14T10:47:32;13.57;;;2.10;;
53151;SDS011;39234;53.158;6.322;2023-03-14T10:53:01;12.40;;;1.80;;
53151;SDS011;39234;53.158;6.322;2023-03-14T10:55:39;16.80;;;1.83;;
53151;SDS011;39234;53.158;6.322;2023-03-14T10:58:26;11.93;;;1.90;;
53151;SDS011;39234;53.158;6.322;2023-03-14T11:09:29;13.38;;;2.05;;
53151;SDS011;39234;53.158;6.322;2023-03-14T11:13:03;13.27;;;1.80;;
53151;SDS011;39234;53.158;6.322;2023-03-14T11:15:16;14.90;;;1.60;;
53151;SDS011;39234;53.158;6.322;2023-03-14T11:23:32;13.85;;;2.40;;
53151;SDS011;39234;53.158;6.322;2023-03-14T11:26:25;12.85;;;1.73;;
53151;SDS011;39234;53.158;6.322;2023-03-14T11:31:48;8.60;;;1.83;;
53151;SDS011;39234;53.158;6.322;2023-03-14T11:39:27;8.63;;;1.60;;
53151;SDS011;39234;53.158;6.322;2023-03-14T11:42:03;7.97;;;1.50;;
53151;SDS011;39234;53.158;6.322;2023-03-14T11:44:33;11.00;;;1.73;;
53151;SDS011;39234;53.158;6.322;2023-03-14T11:47:19;6.07;;;1.08;;
53151;SDS011;39234;53.158;6.322;2023-03-14T11:50:00;5.72;;;1.38;;
53151;SDS011;39234;53.158;6.322;2023-03-14T11:52:34;8.45;;;1.52;;
53151;SDS011;39234;53.158;6.322;2023-03-14T11:57:42;9.15;;;1.48;;
53151;SDS011;39234;53.158;6.322;2023-03-14T12:13:10;10.27;;;1.60;;
53151;SDS011;39234;53.158;6.322;2023-03-14T12:15:39;5.68;;;1.08;;
53151;SDS011;39234;53.158;6.322;2023-03-14T12:18:38;8.38;;;1.30;;
53151;SDS011;39234;53.158;6.322;2023-03-14T12:21:05;10.73;;;1.60;;
53151;SDS011;39234;53.158;6.322;2023-03-14T12:23:34;9.95;;;1.40;;
53151;SDS011;39234;53.158;6.322;2023-03-14T12:28:36;7.63;;;1.45;;
53151;SDS011;39234;53.158;6.322;2023-03-14T12:42:11;10.15;;;1.60;;
53151;SDS011;39234;53.158;6.322;2023-03-14T12:45:14;8.35;;;1.40;;
53151;SDS011;39234;53.158;6.322;2023-03-14T12:47:49;12.07;;;2.05;;
53151;SDS011;39234;53.158;6.322;2023-03-14T12:50:24;10.07;;;1.90;;
53151;SDS011;39234;53.158;6.322;2023-03-14T12:55:38;8.57;;;1.58;;
53151;SDS011;39234;53.158;6.322;2023-03-14T12:58:29;10.98;;;1.70;;
53151;SDS011;39234;53.158;6.322;2023-03-14T13:01:01;10.40;;;1.63;;
53151;SDS011;39234;53.158;6.322;2023-03-14T13:03:45;12.18;;;2.10;;
53151;SDS011;39234;53.158;6.322;2023-03-14T13:06:47;6.43;;;1.20;;
53151;SDS011;39234;53.158;6.322;2023-03-14T13:12:14;9.40;;;2.47;;
53151;SDS011;39234;53.158;6.322;2023-03-14T13:14:43;11.45;;;1.58;;
53151;SDS011;39234;53.158;6.322;2023-03-14T13:17:11;7.93;;;1.40;;
53151;SDS011;39234;53.158;6.322;2023-03-14T13:19:38;10.57;;;1.77;;
53151;SDS011;39234;53.158;6.322;2023-03-14T13:22:06;10.10;;;1.40;;
53151;SDS011;39234;53.158;6.322;2023-03-14T13:24:42;10.77;;;1.38;;
53151;SDS011;39234;53.158;6.322;2023-03-14T13:27:14;9.35;;;1.85;;
53151;SDS011;39234;53.158;6.322;2023-03-14T13:29:43;13.05;;;2.58;;
53151;SDS011;39234;53.158;6.322;2023-03-14T13:32:22;16.17;;;1.60;;
53151;SDS011;39234;53.158;6.322;2023-03-14T13:34:55;7.72;;;1.33;;
53151;SDS011;39234;53.158;6.322;2023-03-14T13:37:24;9.75;;;1.23;;
53151;SDS011;39234;53.158;6.322;2023-03-14T13:39:52;9.25;;;1.27;;
53151;SDS011;39234;53.158;6.322;2023-03-14T13:42:20;9.80;;;1.52;;
53151;SDS011;39234;53.158;6.322;2023-03-14T13:44:49;11.48;;;1.85;;
53151;SDS011;39234;53.158;6.322;2023-03-14T13:47:18;10.32;;;1.77;;
53151;SDS011;39234;53.158;6.322;2023-03-14T13:49:46;12.55;;;1.95;;
53151;SDS011;39234;53.158;6.322;2023-03-14T13:52:47;7.82;;;2.30;;
53151;SDS011;39234;53.158;6.322;2023-03-14T13:55:13;6.07;;;1.30;;
53151;SDS011;39234;53.158;6.322;2023-03-14T13:57:51;8.13;;;1.50;;
53151;SDS011;39234;53.158;6.322;2023-03-14T14:00:24;5.95;;;1.08;;
53151;SDS011;39234;53.158;6.322;2023-03-14T14:02:55;9.27;;;1.83;;
53151;SDS011;39234;53.158;6.322;2023-03-14T14:05:25;8.48;;;1.40;;
53151;SDS011;39234;53.158;6.322;2023-03-14T14:07:53;14.52;;;1.67;;
53151;SDS011;39234;53.158;6.322;2023-03-14T14:10:19;8.32;;;1.13;;
53151;SDS011;39234;53.158;6.322;2023-03-14T14:12:51;10.25;;;2.28;;
53151;SDS011;39234;53.158;6.322;2023-03-14T14:15:27;9.05;;;1.90;;
53151;SDS011;39234;53.158;6.322;2023-03-14T14:18:00;11.70;;;1.58;;
53151;SDS011;39234;53.158;6.322;2023-03-14T14:20:39;10.88;;;2.00;;
53151;SDS011;39234;53.158;6.322;2023-03-14T14:23:10;10.35;;;1.65;;
53151;SDS011;39234;53.158;6.322;2023-03-14T14:25:50;9.73;;;1.73;;
53151;SDS011;39234;53.158;6.322;2023-03-14T14:30:45;11.32;;;1.90;;
53151;SDS011;39234;53.158;6.322;2023-03-14T14:33:21;10.65;;;1.50;;
53151;SDS011;39234;53.158;6.322;2023-03-14T14:35:52;13.98;;;1.83;;
53151;SDS011;39234;53.158;6.322;2023-03-14T14:38:23;11.23;;;1.92;;
53151;SDS011;39234;53.158;6.322;2023-03-14T14:40:51;10.70;;;1.90;;
53151;SDS011;39234;53.158;6.322;2023-03-14T14:43:26;11.68;;;2.10;;
53151;SDS011;39234;53.158;6.322;2023-03-14T14:45:53;11.57;;;1.50;;
53151;SDS011;39234;53.158;6.322;2023-03-14T14:48:24;10.32;;;1.33;;
53151;SDS011;39234;53.158;6.322;2023-03-14T14:51:02;9.80;;;1.97;;
53151;SDS011;39234;53.158;6.322;2023-03-14T14:53:30;11.30;;;1.52;;
53151;SDS011;39234;53.158;6.322;2023-03-14T14:56:20;9.07;;;1.25;;
53151;SDS011;39234;53.158;6.322;2023-03-14T14:58:55;7.43;;;1.17;;
53151;SDS011;39234;53.158;6.322;2023-03-14T15:01:24;8.38;;;1.55;;
53151;SDS011;39234;53.158;6.322;2023-03-14T15:03:55;12.73;;;2.10;;
53151;SDS011;39234;53.158;6.322;2023-03-14T15:06:21;17.95;;;2.20;;
53151;SDS011;39234;53.158;6.322;2023-03-14T15:08:47;12.50;;;1.52;;
53151;SDS011;39234;53.158;6.322;2023-03-14T15:11:17;9.57;;;1.50;;
53151;SDS011;39234;53.158;6.322;2023-03-14T15:13:48;9.88;;;1.45;;
53151;SDS011;39234;53.158;6.322;2023-03-14T15:16:15;9.57;;;2.00;;
53151;SDS011;39234;53.158;6.322;2023-03-14T15:18:44;9.77;;;1.67;;
53151;SDS011;39234;53.158;6.322;2023-03-14T15:21:14;7.70;;;1.63;;
53151;SDS011;39234;53.158;6.322;2023-03-14T15:23:41;10.55;;;1.48;;
53151;SDS011;39234;53.158;6.322;2023-03-14T15:26:13;15.07;;;1.70;;
53151;SDS011;39234;53.158;6.322;2023-03-14T15:28:41;10.43;;;1.65;;
53151;SDS011;39234;53.158;6.322;2023-03-14T15:31:10;8.38;;;1.42;;
53151;SDS011;39234;53.158;6.322;2023-03-14T15:33:36;12.38;;;2.28;;
53151;SDS011;39234;53.158;6.322;2023-03-14T15:36:03;10.68;;;1.83;;
53151;SDS011;39234;53.158;6.322;2023-03-14T15:38:29;10.82;;;1.67;;
53151;SDS011;39234;53.158;6.322;2023-03-14T15:40:55;10.15;;;1.35;;
53151;SDS011;39234;53.158;6.322;2023-03-14T15:43:21;11.85;;;2.28;;
53151;SDS011;39234;53.158;6.322;2023-03-14T15:45:47;15.73;;;2.33;;
53151;SDS011;39234;53.158;6.322;2023-03-14T15:48:19;14.55;;;3.00;;
53151;SDS011;39234;53.158;6.322;2023-03-14T15:50:46;15.77;;;1.90;;
53151;SDS011;39234;53.158;6.322;2023-03-14T15:53:12;15.45;;;1.95;;
53151;SDS011;39234;53.158;6.322;2023-03-14T15:55:38;13.05;;;1.73;;
53151;SDS011;39234;53.158;6.322;2023-03-14T15:58:04;9.60;;;2.03;;
53151;SDS011;39234;53.158;6.322;2023-03-14T16:00:31;8.52;;;2.15;;
53151;SDS011;39234;53.158;6.322;2023-03-14T16:02:57;13.18;;;3.10;;
53151;SDS011;39234;53.158;6.322;2023-03-14T16:05:23;7.70;;;1.33;;
53151;SDS011;39234;53.158;6.322;2023-03-14T16:07:49;15.35;;;2.88;;